createdAt,value
2019-02-27T00:00:19.815Z,14.23
2019-02-27T00:03:07.595Z,13.50
2019-02-27T00:05:55.485Z,13.93
2019-02-27T00:08:43.493Z,12.63
2019-02-27T00:11:31.387Z,13.33
2019-02-27T00:14:19.259Z,12.40
2019-02-27T00:17:08.295Z,11.10
2019-02-27T00:19:56.292Z,11.63
2019-02-27T00:22:44.408Z,14.13
2019-02-27T00:25:35.917Z,12.77
2019-02-27T00:28:23.427Z,11.93
2019-02-27T00:31:12.098Z,11.77
2019-02-27T00:34:00.533Z,11.40
2019-02-27T00:36:48.890Z,12.73
2019-02-27T00:39:36.747Z,12.53
2019-02-27T00:42:33.260Z,13.37
2019-02-27T00:45:14.251Z,13.63
2019-02-27T00:48:02.585Z,13.07
2019-02-27T00:50:50.410Z,13.47
2019-02-27T00:53:38.592Z,14.20
2019-02-27T00:56:26.628Z,14.73
2019-02-27T00:59:14.969Z,14.53
2019-02-27T01:02:03.278Z,13.67
2019-02-27T01:04:50.827Z,14.13
2019-02-27T01:07:38.918Z,13.93
2019-02-27T01:10:27.027Z,15.03
2019-02-27T01:13:14.673Z,14.50
2019-02-27T01:16:02.832Z,14.17
2019-02-27T01:18:51.051Z,15.53
2019-02-27T01:21:39.029Z,13.50
2019-02-27T01:24:27.329Z,15.20
2019-02-27T01:27:15.493Z,15.07
2019-02-27T01:30:03.282Z,14.13
2019-02-27T01:32:51.508Z,15.43
2019-02-27T01:35:40.029Z,13.40
2019-02-27T01:38:27.831Z,11.80
2019-02-27T01:41:16.070Z,11.57
2019-02-27T01:44:04.178Z,10.23
2019-02-27T01:46:54.536Z,11.07
2019-02-27T01:49:41.931Z,12.03
2019-02-27T01:52:33.952Z,12.37
2019-02-27T01:55:21.827Z,12.07
2019-02-27T01:58:09.611Z,12.17
2019-02-27T02:00:58.119Z,12.10
2019-02-27T02:03:47.461Z,11.67
2019-02-27T02:06:35.320Z,11.60
2019-02-27T02:09:34.369Z,11.20
2019-02-27T02:12:28.812Z,10.83
2019-02-27T02:16:19.416Z,12.73
2019-02-27T02:19:48.775Z,11.53
2019-02-27T02:23:14.086Z,12.67
2019-02-27T02:26:28.021Z,12.50
2019-02-27T02:29:59.101Z,13.93
2019-02-27T02:33:00.007Z,14.23
2019-02-27T02:36:43.154Z,13.60
2019-02-27T02:40:11.079Z,14.07
2019-02-27T02:43:23.696Z,14.23
2019-02-27T02:46:36.078Z,12.97
2019-02-27T02:50:08.534Z,13.77
2019-02-27T02:53:11.829Z,13.53
2019-02-27T02:56:24.749Z,13.00
2019-02-27T02:59:37.912Z,11.10
2019-02-27T03:02:39.976Z,12.37
2019-02-27T03:06:12.201Z,11.20
2019-02-27T03:09:36.592Z,10.73
2019-02-27T03:13:33.352Z,10.93
2019-02-27T03:17:20.393Z,11.00
2019-02-27T03:20:43.965Z,11.53
2019-02-27T03:24:01.420Z,10.17
2019-02-27T03:27:30.938Z,12.27
2019-02-27T03:30:57.581Z,11.87
2019-02-27T03:34:22.043Z,11.70
2019-02-27T03:37:33.439Z,10.27
2019-02-27T03:40:48.127Z,10.33
2019-02-27T03:43:55.916Z,10.30
2019-02-27T03:47:16.681Z,10.10
2019-02-27T03:50:49.411Z,10.77
2019-02-27T03:54:07.677Z,10.47
2019-02-27T03:57:32.915Z,10.27
2019-02-27T04:00:30.834Z,10.57
2019-02-27T04:04:05.846Z,11.10
2019-02-27T04:07:46.292Z,11.23
2019-02-27T04:10:34.427Z,10.90
2019-02-27T04:13:26.413Z,12.80
2019-02-27T04:16:11.902Z,11.97
2019-02-27T04:19:04.574Z,13.07
2019-02-27T04:21:50.010Z,11.63
2019-02-27T04:24:38.000Z,12.53
2019-02-27T04:27:25.972Z,11.60
2019-02-27T04:30:16.468Z,11.47
2019-02-27T04:33:04.332Z,13.77
2019-02-27T04:35:52.701Z,13.53
2019-02-27T04:38:40.687Z,12.53
2019-02-27T04:41:28.865Z,12.13
2019-02-27T04:44:16.937Z,12.43
2019-02-27T04:47:04.967Z,12.70
2019-02-27T04:49:52.950Z,11.20
2019-02-27T04:52:41.137Z,13.00
2019-02-27T04:55:29.321Z,12.77
2019-02-27T04:58:17.412Z,13.43
2019-02-27T05:01:05.574Z,14.50
2019-02-27T05:03:53.515Z,13.50
2019-02-27T05:06:41.404Z,12.80
2019-02-27T05:09:33.544Z,12.70
2019-02-27T05:12:19.296Z,12.77
2019-02-27T05:15:07.231Z,12.00
2019-02-27T05:17:56.219Z,12.90
2019-02-27T05:20:45.670Z,12.63
2019-02-27T05:23:34.186Z,11.80
2019-02-27T05:26:22.324Z,11.97
2019-02-27T05:29:10.489Z,12.03
2019-02-27T05:31:58.698Z,13.20
2019-02-27T05:34:49.828Z,12.13
2019-02-27T05:37:39.260Z,12.07
2019-02-27T05:40:26.668Z,11.97
2019-02-27T05:43:14.534Z,12.90
2019-02-27T05:46:03.267Z,12.20
2019-02-27T05:48:53.352Z,13.30
2019-02-27T05:51:41.187Z,13.60
2019-02-27T05:54:30.022Z,12.97
2019-02-27T05:57:21.051Z,13.40
2019-02-27T06:00:11.801Z,13.13
2019-02-27T06:02:59.820Z,14.50
2019-02-27T06:05:49.784Z,13.43
2019-02-27T06:08:38.112Z,13.57
2019-02-27T06:11:27.056Z,12.80
2019-02-27T06:14:15.864Z,12.43
2019-02-27T06:17:04.029Z,13.80
2019-02-27T06:19:51.697Z,15.27
2019-02-27T06:22:39.736Z,14.00
2019-02-27T06:25:27.399Z,13.20
2019-02-27T06:28:18.525Z,14.20
2019-02-27T06:31:05.118Z,14.53
2019-02-27T06:33:53.263Z,13.03
2019-02-27T06:36:42.875Z,13.33
2019-02-27T06:39:34.165Z,12.77
2019-02-27T06:42:20.259Z,12.70
2019-02-27T06:45:10.211Z,13.83
2019-02-27T06:47:59.377Z,13.10
2019-02-27T06:50:48.900Z,13.67
2019-02-27T06:53:37.628Z,12.30
2019-02-27T06:56:25.677Z,11.93
2019-02-27T06:59:13.453Z,11.83
2019-02-27T07:02:01.367Z,11.43
2019-02-27T07:04:49.479Z,12.67
2019-02-27T07:07:37.601Z,13.17
2019-02-27T07:10:25.340Z,14.33
2019-02-27T07:13:13.194Z,13.93
2019-02-27T07:16:01.526Z,13.97
2019-02-27T07:18:49.721Z,15.13
2019-02-27T07:21:37.884Z,14.60
2019-02-27T07:24:26.121Z,16.23
2019-02-27T07:27:13.877Z,14.13
2019-02-27T07:30:01.561Z,14.00
2019-02-27T07:32:49.747Z,15.03
2019-02-27T07:35:37.857Z,14.50
2019-02-27T07:38:26.357Z,15.73
2019-02-27T07:41:17.475Z,12.93
2019-02-27T07:44:03.617Z,13.80
2019-02-27T07:46:51.563Z,14.37
2019-02-27T07:49:39.514Z,15.00
2019-02-27T07:52:32.112Z,14.07
2019-02-27T07:55:22.013Z,14.43
2019-02-27T07:58:06.131Z,14.07
2019-02-27T08:00:53.787Z,14.17
2019-02-27T08:03:44.813Z,14.67
2019-02-27T08:06:31.633Z,14.50
2019-02-27T08:09:19.411Z,14.43
2019-02-27T08:12:07.105Z,16.03
2019-02-27T08:14:55.069Z,16.20
2019-02-27T08:17:42.852Z,14.77
2019-02-27T08:20:31.127Z,16.37
2019-02-27T08:23:18.772Z,15.23
2019-02-27T08:26:07.025Z,14.00
2019-02-27T08:28:55.192Z,15.23
2019-02-27T08:31:43.377Z,14.57
2019-02-27T08:34:31.336Z,14.67
2019-02-27T08:37:20.280Z,14.27
2019-02-27T08:40:09.270Z,14.23
2019-02-27T08:42:57.309Z,15.77
2019-02-27T08:45:45.698Z,15.30
2019-02-27T08:48:33.586Z,15.87
2019-02-27T08:51:21.764Z,16.93
2019-02-27T08:54:09.800Z,16.43
2019-02-27T08:56:58.010Z,13.67
2019-02-27T08:59:46.102Z,14.60
2019-02-27T09:02:34.282Z,14.10
2019-02-27T09:05:23.452Z,12.33
2019-02-27T09:08:11.425Z,12.30
2019-02-27T09:11:05.363Z,13.97
2019-02-27T09:13:49.200Z,15.23
2019-02-27T09:16:37.277Z,12.90
2019-02-27T09:19:25.236Z,13.57
2019-02-27T09:22:13.218Z,13.13
2019-02-27T09:25:01.257Z,14.60
2019-02-27T09:27:49.218Z,14.00
2019-02-27T09:30:37.250Z,12.10
2019-02-27T09:33:25.132Z,11.83
2019-02-27T09:36:13.110Z,11.87
2019-02-27T09:39:01.105Z,13.00
2019-02-27T09:41:48.950Z,13.60
2019-02-27T09:44:37.268Z,12.87
2019-02-27T09:47:25.911Z,13.10
2019-02-27T09:50:27.197Z,12.13
2019-02-27T09:53:15.150Z,13.53
2019-02-27T09:56:02.930Z,13.77
2019-02-27T09:58:50.634Z,13.17
2019-02-27T10:01:38.466Z,12.80
2019-02-27T10:04:28.818Z,12.93
2019-02-27T10:07:17.112Z,13.27
2019-02-27T10:10:10.238Z,11.60
2019-02-27T10:12:55.799Z,12.20
2019-02-27T10:15:43.765Z,11.10
2019-02-27T10:18:31.511Z,11.37
2019-02-27T10:21:19.185Z,11.40
2019-02-27T10:24:07.525Z,10.87
2019-02-27T10:26:55.609Z,10.77
2019-02-27T10:29:47.765Z,10.40
2019-02-27T10:32:36.459Z,10.57
2019-02-27T10:35:23.147Z,11.97
2019-02-27T10:38:11.102Z,11.43
2019-02-27T10:40:59.169Z,11.00
2019-02-27T10:43:46.874Z,11.30
2019-02-27T10:46:34.904Z,11.33
2019-02-27T10:49:23.125Z,12.27
2019-02-27T10:52:11.435Z,11.07
2019-02-27T10:54:59.287Z,10.17
2019-02-27T10:57:47.178Z,11.87
2019-02-27T11:00:35.195Z,11.67
2019-02-27T11:03:26.406Z,10.80
2019-02-27T11:06:13.089Z,10.70
2019-02-27T11:09:04.504Z,10.97
2019-02-27T11:11:53.754Z,11.07
2019-02-27T11:14:40.548Z,11.30
2019-02-27T11:17:28.197Z,10.07
2019-02-27T11:20:20.301Z,11.37
2019-02-27T11:23:07.110Z,9.77
2019-02-27T11:25:56.963Z,10.93
2019-02-27T11:28:47.578Z,10.60
2019-02-27T11:31:34.777Z,10.60
2019-02-27T11:34:23.160Z,10.77
2019-02-27T11:37:13.787Z,10.73
2019-02-27T11:40:01.033Z,10.33
2019-02-27T11:42:48.961Z,11.13
2019-02-27T11:45:36.951Z,9.10
2019-02-27T11:48:25.110Z,9.33
2019-02-27T11:51:13.959Z,10.30
2019-02-27T11:54:04.205Z,10.57
2019-02-27T11:56:56.197Z,9.87
2019-02-27T11:59:41.588Z,10.17
2019-02-27T12:02:36.727Z,9.17
2019-02-27T12:05:19.449Z,10.30
2019-02-27T12:08:07.264Z,10.40
2019-02-27T12:10:55.182Z,10.50
2019-02-27T12:13:43.452Z,10.87
2019-02-27T12:16:33.343Z,12.00
2019-02-27T12:19:21.398Z,11.37
2019-02-27T12:22:09.628Z,10.17
2019-02-27T12:24:58.348Z,10.10
2019-02-27T12:27:49.929Z,9.87
2019-02-27T12:30:37.341Z,11.83
2019-02-27T12:33:29.143Z,11.73
2019-02-27T12:36:18.736Z,10.77
2019-02-27T12:39:08.179Z,9.43
2019-02-27T12:41:55.837Z,8.80
2019-02-27T12:44:44.011Z,8.20
2019-02-27T12:47:32.106Z,7.60
2019-02-27T12:50:21.241Z,8.43
2019-02-27T12:53:08.892Z,7.67
2019-02-27T12:55:57.049Z,7.70
2019-02-27T12:58:45.013Z,8.27
2019-02-27T13:01:32.988Z,7.67
2019-02-27T13:04:20.964Z,7.07
2019-02-27T13:07:10.773Z,6.73
2019-02-27T13:09:59.370Z,9.23
2019-02-27T13:12:49.164Z,9.60
2019-02-27T13:15:38.350Z,9.40
2019-02-27T13:18:31.600Z,9.33
2019-02-27T13:21:20.187Z,10.20
2019-02-27T13:24:06.020Z,8.93
2019-02-27T13:26:54.200Z,8.20
2019-02-27T13:29:42.462Z,8.60
2019-02-27T13:32:30.563Z,7.17
2019-02-27T13:35:20.134Z,8.40
2019-02-27T13:38:08.441Z,8.23
2019-02-27T13:40:56.679Z,8.50
2019-02-27T13:43:45.316Z,9.07
2019-02-27T13:46:32.916Z,8.83
2019-02-27T13:49:21.186Z,8.17
2019-02-27T13:52:12.312Z,5.60
2019-02-27T13:54:58.765Z,5.93
2019-02-27T13:57:47.016Z,6.87
2019-02-27T14:00:35.012Z,6.57
2019-02-27T14:03:22.894Z,9.13
2019-02-27T14:06:11.238Z,8.77
2019-02-27T14:08:59.240Z,8.00
2019-02-27T14:11:47.245Z,5.30
2019-02-27T14:14:35.373Z,5.10
2019-02-27T14:17:23.363Z,5.77
2019-02-27T14:20:13.580Z,5.90
2019-02-27T14:23:01.519Z,7.37
2019-02-27T14:25:49.748Z,5.50
2019-02-27T14:28:37.652Z,5.53
2019-02-27T14:31:25.656Z,4.73
2019-02-27T14:34:13.475Z,5.27
2019-02-27T14:37:01.721Z,4.90
2019-02-27T14:39:49.844Z,4.63
2019-02-27T14:42:38.146Z,5.17
2019-02-27T14:45:26.146Z,5.33
2019-02-27T14:48:13.763Z,4.80
2019-02-27T14:51:01.694Z,4.70
2019-02-27T14:53:52.633Z,4.20
2019-02-27T14:56:41.612Z,4.37
2019-02-27T14:59:31.332Z,3.90
2019-02-27T15:02:22.066Z,4.87
2019-02-27T15:05:09.283Z,4.00
2019-02-27T15:07:57.112Z,3.70
2019-02-27T15:10:45.465Z,3.40
2019-02-27T15:13:33.698Z,3.30
2019-02-27T15:16:21.860Z,3.97
2019-02-27T15:19:09.731Z,3.40
2019-02-27T15:21:58.063Z,2.90
2019-02-27T15:24:46.366Z,3.00
2019-02-27T15:27:34.228Z,2.40
2019-02-27T15:30:23.515Z,2.70
2019-02-27T15:33:11.562Z,2.57
2019-02-27T15:36:00.084Z,2.77
2019-02-27T15:38:48.012Z,2.50
2019-02-27T15:41:36.195Z,2.10
2019-02-27T15:44:24.232Z,2.80
2019-02-27T15:47:12.657Z,1.90
2019-02-27T15:50:02.615Z,2.07
2019-02-27T15:52:50.068Z,2.20
2019-02-27T15:55:38.006Z,1.77
2019-02-27T15:58:28.176Z,1.77
2019-02-27T16:01:15.372Z,1.90
2019-02-27T16:04:03.368Z,4.67
2019-02-27T16:06:51.477Z,1.90
2019-02-27T16:09:39.599Z,1.57
2019-02-27T16:12:27.906Z,1.43
2019-02-27T16:15:16.954Z,1.60
2019-02-27T16:18:05.635Z,1.20
2019-02-27T16:20:53.708Z,1.87
2019-02-27T16:23:41.538Z,1.40
2019-02-27T16:26:29.599Z,1.27
2019-02-27T16:29:19.971Z,1.60
2019-02-27T16:32:07.326Z,1.23
2019-02-27T16:34:55.487Z,1.00
2019-02-27T16:37:43.798Z,1.30
2019-02-27T16:40:31.969Z,1.47
2019-02-27T16:43:19.879Z,1.40
2019-02-27T16:46:08.851Z,1.37
2019-02-27T16:48:56.748Z,1.13
2019-02-27T16:51:44.573Z,4.57
2019-02-27T16:54:32.355Z,11.70
2019-02-27T16:57:24.186Z,10.13
2019-02-27T17:00:10.592Z,9.97
2019-02-27T17:02:58.385Z,9.50
2019-02-27T17:05:46.354Z,9.57
2019-02-27T17:08:35.654Z,10.13
2019-02-27T17:11:23.618Z,9.80
2019-02-27T17:14:11.856Z,9.97
2019-02-27T17:16:59.975Z,8.83
2019-02-27T17:19:48.224Z,7.53
2019-02-27T17:22:36.278Z,10.37
2019-02-27T17:25:29.058Z,10.40
2019-02-27T17:28:14.482Z,10.17
2019-02-27T17:31:04.159Z,10.60
2019-02-27T17:33:52.703Z,10.97
2019-02-27T17:36:40.602Z,10.63
2019-02-27T17:39:30.564Z,11.00
2019-02-27T17:42:19.339Z,10.37
2019-02-27T17:45:10.107Z,10.60
2019-02-27T17:47:57.857Z,9.80
2019-02-27T17:50:49.543Z,9.97
2019-02-27T17:53:37.819Z,9.67
2019-02-27T17:56:25.674Z,10.30
2019-02-27T17:59:13.893Z,9.40
2019-02-27T18:02:01.958Z,10.33
2019-02-27T18:04:53.017Z,9.47
2019-02-27T18:07:40.316Z,8.83
2019-02-27T18:10:28.751Z,8.43
2019-02-27T18:13:16.663Z,9.87
2019-02-27T18:16:04.787Z,9.93
2019-02-27T18:18:52.882Z,10.07
2019-02-27T18:21:40.917Z,9.50
2019-02-27T18:24:33.324Z,8.63
2019-02-27T18:27:18.960Z,9.40
2019-02-27T18:30:07.910Z,10.27
2019-02-27T18:32:56.287Z,10.10
2019-02-27T18:35:44.262Z,10.17
2019-02-27T18:38:32.405Z,9.83
2019-02-27T18:41:20.541Z,10.17
2019-02-27T18:44:09.054Z,9.97
2019-02-27T18:46:59.785Z,10.60
2019-02-27T18:49:49.048Z,10.53
2019-02-27T18:52:38.233Z,10.60
2019-02-27T18:55:29.601Z,9.37
2019-02-27T18:58:14.660Z,10.40
2019-02-27T19:01:02.617Z,9.10
2019-02-27T19:03:50.540Z,9.10
2019-02-27T19:06:38.843Z,9.50
2019-02-27T19:09:29.295Z,8.80
2019-02-27T19:12:16.785Z,9.27
2019-02-27T19:15:05.023Z,9.40
2019-02-27T19:17:53.077Z,8.90
2019-02-27T19:20:41.201Z,10.20
2019-02-27T19:23:29.432Z,9.87
2019-02-27T19:26:17.504Z,9.30
2019-02-27T19:29:05.934Z,9.47
2019-02-27T19:31:53.856Z,9.30
2019-02-27T19:34:44.723Z,8.77
2019-02-27T19:37:32.005Z,9.37
2019-02-27T19:40:20.518Z,9.63
2019-02-27T19:43:08.337Z,10.17
2019-02-27T19:45:56.702Z,9.40
2019-02-27T19:48:45.043Z,9.57
2019-02-27T19:51:33.253Z,9.20
2019-02-27T19:54:21.255Z,9.60
2019-02-27T19:57:09.459Z,8.57
2019-02-27T19:59:59.109Z,10.83
2019-02-27T20:02:47.183Z,9.20
2019-02-27T20:05:36.385Z,9.97
2019-02-27T20:08:26.350Z,9.80
2019-02-27T20:11:14.624Z,10.33
2019-02-27T20:14:03.165Z,9.63
2019-02-27T20:16:54.920Z,8.53
2019-02-27T20:19:40.465Z,9.23
2019-02-27T20:22:28.524Z,9.33
2019-02-27T20:25:18.016Z,8.70
2019-02-27T20:28:06.079Z,9.00
2019-02-27T20:30:53.749Z,8.53
2019-02-27T20:33:41.654Z,8.90
2019-02-27T20:36:32.389Z,8.60
2019-02-27T20:39:18.878Z,8.93
2019-02-27T20:42:07.296Z,7.97
2019-02-27T20:44:55.310Z,8.43
2019-02-27T20:47:43.581Z,8.40
2019-02-27T20:50:35.768Z,8.60
2019-02-27T20:53:23.707Z,8.60
2019-02-27T20:56:11.941Z,8.87
2019-02-27T20:59:02.005Z,9.40
2019-02-27T21:01:49.664Z,8.70
2019-02-27T21:04:39.168Z,9.07
2019-02-27T21:07:27.131Z,9.10
2019-02-27T21:10:21.009Z,9.87
2019-02-27T21:13:06.821Z,9.00
2019-02-27T21:15:54.782Z,9.07
2019-02-27T21:18:42.631Z,9.57
2019-02-27T21:21:30.639Z,9.63
2019-02-27T21:24:18.722Z,9.70
2019-02-27T21:27:06.406Z,9.20
2019-02-27T21:29:54.760Z,9.90
2019-02-27T21:32:42.515Z,9.20
2019-02-27T21:35:30.679Z,9.57
2019-02-27T21:38:18.375Z,9.73
2019-02-27T21:41:11.359Z,9.10
2019-02-27T21:43:56.574Z,9.30
2019-02-27T21:46:47.245Z,8.73
2019-02-27T21:49:35.548Z,8.67
2019-02-27T21:52:23.559Z,9.00
2019-02-27T21:55:13.004Z,9.40
2019-02-27T21:58:01.442Z,9.60
2019-02-27T22:00:49.458Z,8.97
2019-02-27T22:03:38.392Z,9.03
2019-02-27T22:06:27.438Z,9.97
2019-02-27T22:09:15.678Z,10.47
2019-02-27T22:12:03.468Z,10.50
2019-02-27T22:14:51.105Z,9.43
2019-02-27T22:17:38.838Z,9.47
2019-02-27T22:20:26.973Z,9.80
2019-02-27T22:23:15.195Z,10.10
2019-02-27T22:26:04.273Z,10.43
2019-02-27T22:28:54.347Z,9.83
2019-02-27T22:31:41.740Z,10.17
2019-02-27T22:34:29.983Z,9.83
2019-02-27T22:37:18.566Z,10.00
2019-02-27T22:40:08.179Z,10.90
2019-02-27T22:42:56.255Z,9.50
2019-02-27T22:45:44.390Z,9.93
2019-02-27T22:48:32.516Z,8.87
2019-02-27T22:51:20.461Z,10.10
2019-02-27T22:54:08.663Z,10.40
2019-02-27T22:56:56.871Z,10.23
2019-02-27T22:59:45.177Z,10.93
2019-02-27T23:02:33.410Z,10.93
2019-02-27T23:05:21.258Z,9.23
2019-02-27T23:08:09.307Z,9.37
2019-02-27T23:10:57.990Z,10.13
2019-02-27T23:13:48.418Z,10.40
2019-02-27T23:16:36.364Z,9.50
2019-02-27T23:19:24.417Z,8.90
2019-02-27T23:22:12.410Z,10.30
2019-02-27T23:25:00.531Z,8.60
2019-02-27T23:27:48.362Z,9.13
2019-02-27T23:30:36.216Z,9.23
2019-02-27T23:33:24.722Z,8.27
2019-02-27T23:36:12.947Z,9.73
2019-02-27T23:39:01.142Z,9.67
2019-02-27T23:41:48.642Z,8.73
2019-02-27T23:44:38.785Z,10.20
2019-02-27T23:47:28.702Z,9.90
2019-02-27T23:50:15.807Z,9.23
2019-02-27T23:53:03.315Z,9.63
2019-02-27T23:55:51.170Z,9.30
2019-02-27T23:58:39.414Z,9.73
